createdAt,value
2018-05-17T00:00:27.329Z,7.80
2018-05-17T00:02:54.721Z,5.77
2018-05-17T00:05:22.127Z,7.10
2018-05-17T00:07:49.515Z,6.40
2018-05-17T00:10:16.981Z,6.07
2018-05-17T00:12:44.410Z,5.93
2018-05-17T00:15:11.868Z,6.90
2018-05-17T00:17:39.278Z,5.60
2018-05-17T00:20:06.701Z,6.87
2018-05-17T00:22:34.145Z,6.80
2018-05-17T00:25:01.541Z,7.10
2018-05-17T00:27:28.937Z,7.20
2018-05-17T00:29:56.334Z,6.53
2018-05-17T00:32:23.729Z,6.33
2018-05-17T00:34:51.267Z,7.20
2018-05-17T00:37:18.641Z,6.77
2018-05-17T00:39:46.125Z,6.03
2018-05-17T00:42:13.614Z,6.73
2018-05-17T00:44:41.057Z,7.47
2018-05-17T00:47:08.457Z,7.10
2018-05-17T00:49:35.853Z,7.87
2018-05-17T00:52:03.317Z,6.67
2018-05-17T00:54:30.796Z,6.43
2018-05-17T00:56:58.192Z,7.00
2018-05-17T00:59:25.579Z,6.80
2018-05-17T01:01:52.997Z,7.37
2018-05-17T01:04:20.393Z,6.20
2018-05-17T01:06:47.805Z,6.37
2018-05-17T01:09:15.220Z,7.03
2018-05-17T01:11:42.643Z,6.77
2018-05-17T01:14:10.078Z,7.23
2018-05-17T01:16:37.476Z,6.50
2018-05-17T01:19:04.878Z,6.27
2018-05-17T01:21:32.357Z,6.93
2018-05-17T01:23:59.806Z,6.80
2018-05-17T01:26:27.214Z,6.77
2018-05-17T01:28:54.611Z,6.77
2018-05-17T01:31:22.013Z,6.80
2018-05-17T01:33:48.699Z,5.63
2018-05-17T01:36:16.175Z,7.90
2018-05-17T01:38:43.569Z,6.93
2018-05-17T01:41:10.994Z,6.40
2018-05-17T01:43:38.437Z,8.30
2018-05-17T01:46:05.836Z,6.27
2018-05-17T01:48:33.233Z,7.40
2018-05-17T01:51:00.638Z,6.10
2018-05-17T01:53:28.054Z,8.47
2018-05-17T01:55:55.504Z,6.43
2018-05-17T01:58:22.968Z,6.47
2018-05-17T02:00:50.386Z,7.10
2018-05-17T02:03:17.785Z,6.83
2018-05-17T02:05:45.237Z,7.97
2018-05-17T02:08:12.655Z,7.93
2018-05-17T02:10:40.061Z,6.33
2018-05-17T02:13:07.445Z,7.53
2018-05-17T02:15:34.861Z,8.10
2018-05-17T02:18:02.269Z,8.30
2018-05-17T02:20:29.672Z,7.17
2018-05-17T02:22:57.086Z,7.37
2018-05-17T02:25:24.556Z,7.03
2018-05-17T02:27:52.033Z,6.67
2018-05-17T02:30:19.433Z,7.20
2018-05-17T02:32:46.832Z,7.40
2018-05-17T02:35:14.221Z,7.00
2018-05-17T02:37:41.633Z,6.50
2018-05-17T02:40:09.035Z,6.43
2018-05-17T02:42:36.557Z,7.47
2018-05-17T02:45:03.958Z,7.87
2018-05-17T02:47:31.389Z,7.13
2018-05-17T02:49:58.812Z,7.97
2018-05-17T02:52:26.287Z,8.37
2018-05-17T02:54:53.678Z,7.43
2018-05-17T02:57:21.079Z,7.17
2018-05-17T02:59:48.497Z,7.40
2018-05-17T03:02:15.894Z,6.53
2018-05-17T03:04:43.288Z,7.20
2018-05-17T03:07:10.697Z,7.63
2018-05-17T03:09:38.129Z,6.97
2018-05-17T03:12:05.628Z,5.93
2018-05-17T03:14:33.025Z,7.70
2018-05-17T03:17:00.431Z,6.80
2018-05-17T03:19:27.862Z,6.03
2018-05-17T03:21:55.281Z,8.73
2018-05-17T03:24:22.702Z,7.43
2018-05-17T03:26:50.093Z,8.10
2018-05-17T03:29:17.484Z,6.80
2018-05-17T03:31:44.906Z,6.85
2018-05-17T03:34:12.301Z,7.23
2018-05-17T03:36:39.747Z,7.80
2018-05-17T03:39:07.137Z,6.90
2018-05-17T03:41:34.538Z,7.50
2018-05-17T03:44:01.945Z,7.00
2018-05-17T03:46:29.351Z,6.40
2018-05-17T03:48:56.742Z,6.20
2018-05-17T03:51:24.231Z,6.50
2018-05-17T03:53:51.626Z,7.60
2018-05-17T03:56:19.022Z,6.33
2018-05-17T03:58:46.414Z,7.30
2018-05-17T04:01:25.653Z,6.40
2018-05-17T04:04:04.721Z,6.47
2018-05-17T04:06:37.633Z,7.10
2018-05-17T04:09:05.781Z,7.40
2018-05-17T04:11:33.296Z,7.33
2018-05-17T04:14:00.849Z,6.93
2018-05-17T04:16:28.137Z,7.40
2018-05-17T04:18:55.582Z,8.40
2018-05-17T04:21:22.977Z,6.53
2018-05-17T04:23:50.379Z,7.60
2018-05-17T04:26:17.782Z,8.80
2018-05-17T04:28:45.176Z,7.73
2018-05-17T04:31:12.683Z,7.53
2018-05-17T04:33:40.084Z,7.20
2018-05-17T04:36:07.475Z,7.60
2018-05-17T04:38:34.895Z,8.43
2018-05-17T04:41:02.295Z,6.50
2018-05-17T04:43:29.748Z,6.83
2018-05-17T04:45:57.157Z,6.63
2018-05-17T04:48:24.607Z,7.30
2018-05-17T04:50:51.994Z,8.20
2018-05-17T04:53:19.397Z,8.00
2018-05-17T04:55:46.799Z,7.00
2018-05-17T04:58:14.217Z,6.60
2018-05-17T05:00:41.640Z,8.77
2018-05-17T05:03:09.050Z,7.30
2018-05-17T05:05:36.443Z,8.20
2018-05-17T05:08:03.847Z,8.80
2018-05-17T05:10:31.241Z,7.03
2018-05-17T05:12:58.645Z,7.27
2018-05-17T05:15:26.119Z,7.80
2018-05-17T05:17:53.565Z,8.20
2018-05-17T05:20:20.952Z,7.43
2018-05-17T05:22:48.357Z,7.80
2018-05-17T05:25:15.833Z,7.23
2018-05-17T05:27:43.306Z,7.23
2018-05-17T05:30:10.703Z,7.90
2018-05-17T05:32:38.093Z,7.73
2018-05-17T05:35:05.589Z,7.77
2018-05-17T05:37:33.077Z,9.40
2018-05-17T05:40:00.397Z,5.90
2018-05-17T05:42:27.797Z,7.00
2018-05-17T05:44:55.377Z,8.63
2018-05-17T05:47:22.848Z,8.07
2018-05-17T05:49:50.252Z,8.93
2018-05-17T05:52:17.645Z,7.33
2018-05-17T05:54:45.053Z,8.13
2018-05-17T05:57:12.462Z,6.50
2018-05-17T05:59:39.929Z,9.20
2018-05-17T06:02:07.343Z,8.40
2018-05-17T06:04:34.765Z,7.17
2018-05-17T06:07:02.153Z,7.17
2018-05-17T06:09:29.578Z,6.50
2018-05-17T06:11:56.997Z,6.60
2018-05-17T06:14:24.443Z,8.20
2018-05-17T06:16:51.842Z,7.30
2018-05-17T06:19:19.241Z,7.77
2018-05-17T06:21:46.638Z,8.23
2018-05-17T06:24:14.049Z,6.80
2018-05-17T06:26:41.533Z,7.20
2018-05-17T06:29:08.937Z,6.27
2018-05-17T06:31:36.325Z,7.30
2018-05-17T06:34:03.815Z,8.20
2018-05-17T06:36:31.304Z,7.63
2018-05-17T06:38:58.726Z,9.13
2018-05-17T06:41:26.112Z,7.83
2018-05-17T06:43:53.611Z,7.40
2018-05-17T06:46:21.021Z,7.70
2018-05-17T06:48:48.448Z,6.50
2018-05-17T06:51:15.840Z,7.30
2018-05-17T06:53:43.241Z,7.13
2018-05-17T06:56:10.646Z,7.90
2018-05-17T06:58:38.086Z,8.00
2018-05-17T07:01:05.502Z,8.13
2018-05-17T07:03:32.943Z,6.90
2018-05-17T07:06:00.385Z,9.20
2018-05-17T07:08:27.790Z,7.83
2018-05-17T07:10:55.190Z,8.97
2018-05-17T07:13:22.673Z,7.17
2018-05-17T07:15:50.097Z,6.87
2018-05-17T07:18:17.648Z,7.97
2018-05-17T07:20:45.905Z,6.37
2018-05-17T07:23:13.305Z,7.93
2018-05-17T07:25:40.697Z,8.33
2018-05-17T07:28:08.225Z,7.13
2018-05-17T07:30:35.638Z,7.97
2018-05-17T07:33:03.043Z,8.10
2018-05-17T07:35:30.554Z,7.60
2018-05-17T07:37:57.974Z,8.43
2018-05-17T07:40:25.457Z,10.10
2018-05-17T07:42:52.871Z,10.73
2018-05-17T07:45:20.327Z,15.50
2018-05-17T07:47:47.733Z,17.17
2018-05-17T07:50:15.142Z,16.53
2018-05-17T07:52:42.641Z,17.13
2018-05-17T07:55:10.075Z,18.00
2018-05-17T07:57:37.480Z,19.43
2018-05-17T08:00:04.920Z,19.13
2018-05-17T08:02:32.317Z,18.97
2018-05-17T08:04:59.821Z,11.70
2018-05-17T08:07:27.219Z,11.67
2018-05-17T08:09:54.701Z,10.10
2018-05-17T08:12:22.105Z,7.87
2018-05-17T08:14:49.513Z,7.80
2018-05-17T08:17:16.908Z,6.30
2018-05-17T08:19:44.327Z,7.07
2018-05-17T08:22:11.732Z,7.17
2018-05-17T08:24:39.171Z,7.07
2018-05-17T08:27:06.566Z,7.90
2018-05-17T08:29:33.967Z,5.27
2018-05-17T08:32:01.369Z,8.90
2018-05-17T08:34:28.857Z,7.47
2018-05-17T08:36:56.348Z,6.83
2018-05-17T08:39:23.810Z,8.47
2018-05-17T08:41:51.277Z,5.73
2018-05-17T08:44:18.731Z,9.23
2018-05-17T08:46:46.177Z,7.07
2018-05-17T08:49:13.633Z,6.27
2018-05-17T08:51:41.121Z,6.90
2018-05-17T08:54:08.536Z,7.40
2018-05-17T08:56:35.921Z,6.83
2018-05-17T08:59:03.337Z,6.53
2018-05-17T09:01:30.860Z,7.90
2018-05-17T09:03:58.260Z,7.07
2018-05-17T09:06:25.659Z,6.77
2018-05-17T09:08:53.165Z,6.80
2018-05-17T09:11:20.549Z,7.00
2018-05-17T09:13:48.019Z,7.40
2018-05-17T09:16:15.388Z,7.60
2018-05-17T09:18:42.877Z,7.60
2018-05-17T09:21:10.286Z,5.33
2018-05-17T09:23:37.684Z,6.50
2018-05-17T09:26:05.110Z,7.83
2018-05-17T09:28:32.512Z,7.53
2018-05-17T09:30:59.975Z,7.17
2018-05-17T09:33:27.363Z,7.00
2018-05-17T09:35:54.768Z,6.40
2018-05-17T09:38:22.193Z,6.70
2018-05-17T09:40:49.639Z,6.03
2018-05-17T09:43:17.141Z,8.27
2018-05-17T09:45:44.617Z,6.53
2018-05-17T09:48:12.053Z,6.90
2018-05-17T09:50:39.497Z,6.70
2018-05-17T09:53:06.978Z,7.80
2018-05-17T09:55:34.384Z,6.70
2018-05-17T09:58:01.788Z,7.10
2018-05-17T10:00:31.402Z,6.13
2018-05-17T10:02:58.805Z,6.93
2018-05-17T10:05:26.312Z,6.27
2018-05-17T10:07:53.705Z,7.07
2018-05-17T10:10:21.210Z,7.00
2018-05-17T10:12:48.602Z,5.70
2018-05-17T10:15:16.006Z,9.13
2018-05-17T10:17:43.423Z,6.40
2018-05-17T10:20:10.838Z,7.47
2018-05-17T10:22:38.231Z,6.33
2018-05-17T10:25:05.648Z,6.77
2018-05-17T10:27:33.984Z,6.80
2018-05-17T10:30:01.385Z,7.30
2018-05-17T10:32:28.813Z,5.73
2018-05-17T10:34:56.195Z,6.10
2018-05-17T10:37:23.668Z,6.93
2018-05-17T10:39:51.065Z,6.50
2018-05-17T10:42:18.555Z,5.93
2018-05-17T10:44:46.038Z,6.93
2018-05-17T10:47:13.438Z,6.10
2018-05-17T10:49:40.838Z,7.63
2018-05-17T10:52:08.232Z,7.20
2018-05-17T10:54:35.730Z,8.07
2018-05-17T10:57:03.029Z,7.00
2018-05-17T10:59:30.479Z,7.57
2018-05-17T11:01:57.912Z,6.43
2018-05-17T11:04:25.318Z,5.90
2018-05-17T11:06:52.736Z,6.30
2018-05-17T11:09:20.213Z,7.03
2018-05-17T11:11:47.593Z,6.83
2018-05-17T11:14:15.002Z,6.60
2018-05-17T11:16:42.403Z,7.10
2018-05-17T11:19:09.790Z,7.27
2018-05-17T11:21:37.181Z,7.07
2018-05-17T11:24:04.625Z,6.00
2018-05-17T11:26:32.052Z,6.90
2018-05-17T11:28:59.459Z,6.50
2018-05-17T11:31:26.897Z,6.60
2018-05-17T11:33:54.291Z,6.60
2018-05-17T11:36:21.685Z,7.90
2018-05-17T11:38:49.100Z,6.63
2018-05-17T11:41:16.505Z,6.87
2018-05-17T11:43:44.002Z,7.07
2018-05-17T11:46:11.441Z,6.53
2018-05-17T11:48:38.839Z,6.50
2018-05-17T11:51:06.269Z,6.53
2018-05-17T11:53:33.837Z,6.33
2018-05-17T11:56:01.235Z,6.50
2018-05-17T11:58:28.650Z,6.43
2018-05-17T12:00:56.077Z,7.20
2018-05-17T12:03:23.472Z,7.60
2018-05-17T12:05:50.921Z,7.43
2018-05-17T12:08:18.387Z,7.43
2018-05-17T12:10:45.797Z,8.60
2018-05-17T12:13:13.184Z,7.57
2018-05-17T12:15:40.593Z,7.07
2018-05-17T12:18:07.992Z,7.40
2018-05-17T12:20:35.398Z,10.10
2018-05-17T12:23:03.007Z,9.50
2018-05-17T12:25:30.301Z,9.20
2018-05-17T12:27:57.697Z,8.63
2018-05-17T12:30:25.122Z,8.50
2018-05-17T12:32:52.650Z,9.13
2018-05-17T12:35:20.054Z,10.27
2018-05-17T12:37:47.525Z,6.70
2018-05-17T12:40:14.952Z,9.37
2018-05-17T12:42:42.620Z,6.50
2018-05-17T12:45:09.772Z,7.83
2018-05-17T12:47:37.193Z,6.40
2018-05-17T12:50:05.022Z,7.33
2018-05-17T12:52:32.438Z,8.37
2018-05-17T12:54:59.845Z,8.60
2018-05-17T12:57:27.361Z,6.63
2018-05-17T12:59:54.801Z,6.83
2018-05-17T13:02:22.216Z,7.87
2018-05-17T13:04:49.665Z,10.47
2018-05-17T13:07:17.089Z,11.93
2018-05-17T13:09:44.595Z,11.07
2018-05-17T13:12:12.019Z,9.30
2018-05-17T13:14:39.409Z,7.77
2018-05-17T13:17:06.825Z,8.33
2018-05-17T13:19:34.237Z,6.00
2018-05-17T13:22:01.652Z,5.93
2018-05-17T13:24:29.049Z,5.90
2018-05-17T13:26:56.453Z,6.10
2018-05-17T13:29:24.126Z,6.63
2018-05-17T13:31:51.552Z,6.50
2018-05-17T13:34:18.954Z,7.03
2018-05-17T13:36:46.379Z,8.57
2018-05-17T13:39:13.857Z,8.03
2018-05-17T13:41:41.281Z,8.43
2018-05-17T13:44:08.673Z,7.80
2018-05-17T13:46:36.092Z,7.90
2018-05-17T13:49:03.795Z,8.73
2018-05-17T13:51:31.180Z,9.77
2018-05-17T13:53:58.574Z,9.93
2018-05-17T13:56:26.041Z,10.90
2018-05-17T13:58:53.505Z,11.27
2018-05-17T14:01:20.958Z,10.55
2018-05-17T14:03:48.336Z,9.90
2018-05-17T14:06:15.747Z,11.07
2018-05-17T14:08:43.133Z,11.37
2018-05-17T14:11:10.550Z,11.37
2018-05-17T14:13:37.949Z,11.33
2018-05-17T14:16:05.449Z,10.60
2018-05-17T14:18:32.876Z,13.90
2018-05-17T14:21:00.277Z,12.50
2018-05-17T14:23:27.750Z,14.57
2018-05-17T14:25:55.217Z,13.00
2018-05-17T14:28:22.604Z,14.50
2018-05-17T14:30:50.016Z,13.17
2018-05-17T14:33:17.520Z,13.93
2018-05-17T14:35:44.925Z,14.53
2018-05-17T14:38:12.344Z,15.53
2018-05-17T14:40:39.769Z,11.60
2018-05-17T14:43:07.272Z,11.37
2018-05-17T14:45:34.721Z,10.57
2018-05-17T14:48:02.139Z,10.83
2018-05-17T14:50:29.540Z,14.70
2018-05-17T14:52:56.977Z,15.43
2018-05-17T14:55:24.449Z,14.90
2018-05-17T14:57:51.898Z,13.70
2018-05-17T15:00:19.301Z,12.73
2018-05-17T15:02:46.709Z,11.20
2018-05-17T15:05:14.162Z,8.93
2018-05-17T15:07:41.622Z,9.77
2018-05-17T15:10:09.027Z,10.00
2018-05-17T15:12:36.463Z,9.90
2018-05-17T15:15:03.896Z,11.00
2018-05-17T15:17:31.459Z,12.63
2018-05-17T15:19:58.900Z,13.40
2018-05-17T15:22:26.371Z,13.70
2018-05-17T15:24:53.816Z,13.47
2018-05-17T15:27:21.345Z,13.50
2018-05-17T15:29:48.725Z,12.97
2018-05-17T15:32:16.110Z,12.13
2018-05-17T15:34:43.557Z,11.70
2018-05-17T15:37:10.954Z,11.43
2018-05-17T15:39:38.351Z,12.40
2018-05-17T15:42:05.827Z,14.30
2018-05-17T15:44:33.301Z,11.40
2018-05-17T15:47:00.741Z,13.53
2018-05-17T15:49:28.153Z,13.23
2018-05-17T15:51:55.562Z,13.33
2018-05-17T15:54:22.956Z,14.20
2018-05-17T15:56:50.360Z,12.60
2018-05-17T15:59:17.837Z,14.10
2018-05-17T16:01:45.248Z,13.10
2018-05-17T16:04:12.768Z,15.67
2018-05-17T16:06:40.228Z,12.73
2018-05-17T16:09:07.590Z,15.30
2018-05-17T16:11:34.997Z,14.77
2018-05-17T16:14:02.401Z,13.73
2018-05-17T16:16:29.922Z,12.57
2018-05-17T16:18:57.338Z,13.00
2018-05-17T16:21:24.825Z,13.73
2018-05-17T16:23:52.233Z,14.40
2018-05-17T16:26:19.621Z,15.00
2018-05-17T16:28:47.062Z,15.50
2018-05-17T16:31:14.465Z,15.17
2018-05-17T16:33:41.923Z,15.67
2018-05-17T16:36:09.322Z,13.37
2018-05-17T16:38:36.812Z,14.23
2018-05-17T16:41:04.217Z,13.20
2018-05-17T16:43:31.636Z,13.33
2018-05-17T16:45:59.042Z,13.00
2018-05-17T16:48:26.592Z,13.77
2018-05-17T16:50:54.012Z,15.03
2018-05-17T16:53:21.484Z,13.53
2018-05-17T16:55:48.846Z,14.13
2018-05-17T16:58:16.240Z,15.27
2018-05-17T17:00:43.741Z,14.77
2018-05-17T17:03:11.138Z,11.70
2018-05-17T17:05:38.534Z,13.53
2018-05-17T17:08:05.968Z,14.40
2018-05-17T17:10:33.348Z,14.80
2018-05-17T17:13:00.860Z,13.97
2018-05-17T17:15:28.252Z,14.10
2018-05-17T17:17:55.744Z,15.97
2018-05-17T17:20:23.094Z,15.33
2018-05-17T17:22:50.500Z,13.77
2018-05-17T17:25:17.926Z,12.67
2018-05-17T17:27:45.328Z,13.10
2018-05-17T17:30:12.805Z,13.40
2018-05-17T17:32:40.221Z,13.63
2018-05-17T17:35:07.603Z,11.60
2018-05-17T17:37:35.029Z,12.07
2018-05-17T17:40:02.441Z,10.40
2018-05-17T17:42:29.881Z,11.60
2018-05-17T17:44:57.404Z,11.30
2018-05-17T17:47:24.920Z,11.70
2018-05-17T17:49:52.503Z,10.03
2018-05-17T17:52:19.853Z,10.53
2018-05-17T17:54:47.275Z,10.33
2018-05-17T17:57:14.672Z,10.30
2018-05-17T17:59:42.153Z,11.00
2018-05-17T18:02:09.596Z,9.00
2018-05-17T18:04:37.008Z,9.10
2018-05-17T18:07:04.417Z,9.40
2018-05-17T18:09:31.812Z,9.37
2018-05-17T18:11:59.210Z,9.33
2018-05-17T18:14:26.664Z,8.73
2018-05-17T18:16:54.062Z,10.13
2018-05-17T18:19:21.456Z,8.23
2018-05-17T18:21:48.848Z,9.50
2018-05-17T18:24:16.254Z,8.40
2018-05-17T18:26:43.676Z,8.40
2018-05-17T18:29:11.150Z,7.07
2018-05-17T18:31:38.575Z,7.33
2018-05-17T18:34:06.019Z,8.13
2018-05-17T18:36:33.472Z,7.80
2018-05-17T18:39:00.870Z,8.33
2018-05-17T18:41:28.322Z,7.17
2018-05-17T18:43:55.757Z,8.37
2018-05-17T18:46:23.196Z,7.87
2018-05-17T18:48:50.591Z,7.00
2018-05-17T18:51:18.002Z,8.13
2018-05-17T18:53:45.403Z,8.60
2018-05-17T18:56:12.817Z,8.00
2018-05-17T18:58:40.298Z,7.67
2018-05-17T19:01:07.892Z,8.00
2018-05-17T19:03:35.301Z,9.17
2018-05-17T19:06:02.697Z,8.80
2018-05-17T19:08:30.126Z,6.50
2018-05-17T19:10:57.513Z,6.90
2018-05-17T19:13:24.913Z,7.67
2018-05-17T19:15:52.369Z,6.03
2018-05-17T19:18:19.832Z,5.47
2018-05-17T19:20:47.252Z,6.90
2018-05-17T19:23:14.648Z,7.00
2018-05-17T19:25:42.125Z,6.00
2018-05-17T19:28:09.516Z,5.97
2018-05-17T19:30:37.020Z,5.87
2018-05-17T19:33:04.489Z,5.63
2018-05-17T19:35:31.894Z,5.80
2018-05-17T19:37:59.312Z,7.10
2018-05-17T19:40:26.846Z,5.70
2018-05-17T19:42:54.242Z,5.90
2018-05-17T19:45:21.748Z,6.30
2018-05-17T19:47:49.067Z,6.93
2018-05-17T19:50:16.569Z,6.10
2018-05-17T19:52:43.969Z,5.23
2018-05-17T19:55:11.383Z,5.40
2018-05-17T19:57:38.790Z,6.10
2018-05-17T20:00:06.183Z,6.20
2018-05-17T20:02:34.540Z,5.90
2018-05-17T20:05:02.103Z,6.80
2018-05-17T20:07:29.462Z,6.17
2018-05-17T20:09:56.966Z,7.63
2018-05-17T20:12:24.393Z,6.30
2018-05-17T20:14:51.788Z,5.87
2018-05-17T20:17:19.217Z,6.47
2018-05-17T20:19:46.699Z,6.00
2018-05-17T20:22:14.100Z,6.90
2018-05-17T20:24:41.509Z,6.70
2018-05-17T20:27:08.930Z,5.80
2018-05-17T20:29:36.363Z,6.43
2018-05-17T20:32:03.861Z,5.97
2018-05-17T20:34:31.263Z,5.60
2018-05-17T20:36:58.722Z,6.00
2018-05-17T20:39:26.123Z,7.93
2018-05-17T20:41:53.525Z,5.53
2018-05-17T20:44:20.992Z,6.37
2018-05-17T20:46:48.466Z,5.23
2018-05-17T20:49:15.962Z,6.50
2018-05-17T20:51:43.514Z,6.67
2018-05-17T20:54:10.962Z,7.30
2018-05-17T20:56:38.726Z,6.30
2018-05-17T20:59:06.196Z,6.67
2018-05-17T21:01:33.663Z,5.97
2018-05-17T21:04:01.108Z,5.80
2018-05-17T21:06:28.502Z,5.80
2018-05-17T21:08:55.976Z,6.00
2018-05-17T21:11:23.422Z,6.87
2018-05-17T21:13:50.822Z,5.97
2018-05-17T21:16:18.210Z,6.70
2018-05-17T21:18:45.613Z,6.63
2018-05-17T21:21:13.042Z,5.97
2018-05-17T21:23:40.448Z,5.93
2018-05-17T21:26:07.947Z,6.20
2018-05-17T21:28:35.349Z,6.60
2018-05-17T21:31:02.749Z,7.27
2018-05-17T21:33:30.174Z,6.73
2018-05-17T21:35:57.574Z,6.67
2018-05-17T21:38:25.025Z,6.60
2018-05-17T21:40:52.489Z,6.30
2018-05-17T21:43:19.894Z,6.03
2018-05-17T21:45:47.289Z,6.17
2018-05-17T21:48:14.693Z,8.50
2018-05-17T21:50:42.090Z,6.30
2018-05-17T21:53:09.508Z,8.43
2018-05-17T21:55:37.082Z,7.10
2018-05-17T21:58:04.445Z,7.30
2018-05-17T22:00:31.829Z,5.97
2018-05-17T22:02:59.234Z,7.00
2018-05-17T22:05:26.624Z,7.27
2018-05-17T22:07:54.040Z,5.73
2018-05-17T22:10:21.565Z,7.03
2018-05-17T22:12:48.972Z,6.70
2018-05-17T22:15:16.355Z,6.53
2018-05-17T22:17:43.785Z,7.00
2018-05-17T22:20:11.260Z,6.00
2018-05-17T22:22:38.664Z,6.23
2018-05-17T22:25:06.174Z,6.60
2018-05-17T22:27:33.574Z,6.13
2018-05-17T22:30:00.988Z,6.57
2018-05-17T22:32:28.397Z,6.63
2018-05-17T22:34:55.785Z,7.10
2018-05-17T22:37:23.190Z,6.83
2018-05-17T22:39:50.598Z,6.30
2018-05-17T22:42:18.065Z,8.23
2018-05-17T22:44:45.449Z,10.60
2018-05-17T22:47:14.557Z,10.43
2018-05-17T22:49:42.074Z,11.07
2018-05-17T22:52:09.533Z,11.67
2018-05-17T22:54:36.973Z,14.07
2018-05-17T22:57:12.253Z,10.80
2018-05-17T22:59:39.656Z,11.60
2018-05-17T23:02:07.053Z,11.27
2018-05-17T23:04:34.551Z,10.67
2018-05-17T23:07:01.964Z,10.67
2018-05-17T23:09:29.447Z,9.90
2018-05-17T23:11:56.862Z,12.17
2018-05-17T23:14:24.265Z,13.43
2018-05-17T23:16:51.677Z,14.70
2018-05-17T23:19:19.088Z,14.07
2018-05-17T23:21:46.484Z,13.57
2018-05-17T23:24:13.982Z,13.90
2018-05-17T23:26:41.382Z,12.00
2018-05-17T23:29:08.801Z,13.40
2018-05-17T23:31:36.212Z,12.40
2018-05-17T23:34:03.642Z,13.30
2018-05-17T23:36:31.037Z,12.47
2018-05-17T23:38:58.462Z,12.47
2018-05-17T23:41:36.703Z,12.83
2018-05-17T23:44:04.128Z,12.10
2018-05-17T23:46:31.646Z,11.70
2018-05-17T23:48:59.055Z,12.50
2018-05-17T23:51:26.465Z,12.60
2018-05-17T23:53:53.857Z,12.23
2018-05-17T23:56:21.274Z,12.40
2018-05-17T23:58:48.746Z,12.23
